createdAt,value
2018-06-21T00:00:10.554Z,27.27
2018-06-21T00:02:37.691Z,34.00
2018-06-21T00:05:04.723Z,30.47
2018-06-21T00:07:31.659Z,29.90
2018-06-21T00:09:58.698Z,30.17
2018-06-21T00:12:25.654Z,28.73
2018-06-21T00:14:52.663Z,30.00
2018-06-21T00:17:19.672Z,30.10
2018-06-21T00:19:46.610Z,28.67
2018-06-21T00:22:13.548Z,27.63
2018-06-21T00:24:40.456Z,33.27
2018-06-21T00:27:07.419Z,28.43
2018-06-21T00:29:34.330Z,27.47
2018-06-21T00:32:01.268Z,24.33
2018-06-21T00:34:28.203Z,27.27
2018-06-21T00:36:55.115Z,23.80
2018-06-21T00:39:22.091Z,29.43
2018-06-21T00:41:49.118Z,28.90
2018-06-21T00:44:16.015Z,30.20
2018-06-21T00:46:42.919Z,25.20
2018-06-21T00:49:09.874Z,24.57
2018-06-21T00:51:37.019Z,31.13
2018-06-21T00:54:04.205Z,26.10
2018-06-21T00:56:31.146Z,25.10
2018-06-21T00:58:58.066Z,27.80
2018-06-21T01:01:25.050Z,28.60
2018-06-21T01:03:51.983Z,31.27
2018-06-21T01:06:18.913Z,24.90
2018-06-21T01:08:45.863Z,28.73
2018-06-21T01:11:13.143Z,24.77
2018-06-21T01:13:40.170Z,23.73
2018-06-21T01:16:07.086Z,27.80
2018-06-21T01:18:34.359Z,23.90
2018-06-21T01:21:01.319Z,22.43
2018-06-21T01:23:28.301Z,25.43
2018-06-21T01:25:55.207Z,25.63
2018-06-21T01:28:22.243Z,25.00
2018-06-21T01:30:49.212Z,24.37
2018-06-21T01:33:16.129Z,22.53
2018-06-21T01:35:43.135Z,25.10
2018-06-21T01:38:10.060Z,23.73
2018-06-21T01:40:36.975Z,28.60
2018-06-21T01:43:03.994Z,21.47
2018-06-21T01:45:30.931Z,28.03
2018-06-21T01:47:57.975Z,21.43
2018-06-21T01:50:24.940Z,24.77
2018-06-21T01:52:51.907Z,24.20
2018-06-21T01:55:19.331Z,22.90
2018-06-21T01:57:46.235Z,22.13
2018-06-21T02:00:13.188Z,24.00
2018-06-21T02:02:40.143Z,23.37
2018-06-21T02:05:07.066Z,22.77
2018-06-21T02:07:33.983Z,25.83
2018-06-21T02:10:00.935Z,28.33
2018-06-21T02:12:28.055Z,22.60
2018-06-21T02:14:55.012Z,23.00
2018-06-21T02:17:22.055Z,23.57
2018-06-21T02:19:49.030Z,30.50
2018-06-21T02:22:15.984Z,26.47
2018-06-21T02:24:42.919Z,24.03
2018-06-21T02:27:09.842Z,22.30
2018-06-21T02:29:36.763Z,23.73
2018-06-21T02:32:03.735Z,26.57
2018-06-21T02:34:30.655Z,26.10
2018-06-21T02:36:57.580Z,23.27
2018-06-21T02:39:24.516Z,25.50
2018-06-21T02:41:51.434Z,21.70
2018-06-21T02:44:18.390Z,23.60
2018-06-21T02:46:45.435Z,26.20
2018-06-21T02:49:12.692Z,29.13
2018-06-21T02:51:39.636Z,22.87
2018-06-21T02:54:06.587Z,27.20
2018-06-21T02:56:33.527Z,22.50
2018-06-21T02:59:00.475Z,20.73
2018-06-21T03:01:27.388Z,20.00
2018-06-21T03:03:54.927Z,21.53
2018-06-21T03:06:21.759Z,23.93
2018-06-21T03:08:48.872Z,19.27
2018-06-21T03:11:15.796Z,19.77
2018-06-21T03:13:42.727Z,20.50
2018-06-21T03:16:09.659Z,17.43
2018-06-21T03:18:36.571Z,21.63
2018-06-21T03:21:03.499Z,22.30
2018-06-21T03:23:30.448Z,18.03
2018-06-21T03:25:57.392Z,22.90
2018-06-21T03:28:24.379Z,16.90
2018-06-21T03:30:51.460Z,19.43
2018-06-21T03:33:18.382Z,20.43
2018-06-21T03:35:45.667Z,17.47
2018-06-21T03:38:12.655Z,20.30
2018-06-21T03:40:39.615Z,20.73
2018-06-21T03:43:06.527Z,17.47
2018-06-21T03:45:33.487Z,19.63
2018-06-21T03:48:00.426Z,20.63
2018-06-21T03:50:27.395Z,18.30
2018-06-21T03:52:54.299Z,23.80
2018-06-21T03:55:21.303Z,22.33
2018-06-21T03:57:48.204Z,11.60
2018-06-21T04:00:15.131Z,8.73
2018-06-21T04:02:42.061Z,6.00
2018-06-21T04:05:09.059Z,5.40
2018-06-21T04:07:35.990Z,4.90
2018-06-21T04:10:03.011Z,3.20
2018-06-21T04:12:29.955Z,2.70
2018-06-21T04:15:00.200Z,2.90
2018-06-21T04:17:27.527Z,2.90
2018-06-21T04:19:54.427Z,2.63
2018-06-21T04:22:21.339Z,2.47
2018-06-21T04:24:48.259Z,3.07
2018-06-21T04:27:15.171Z,3.40
2018-06-21T04:29:42.170Z,1.90
2018-06-21T04:32:09.119Z,2.57
2018-06-21T04:34:36.118Z,3.60
2018-06-21T04:37:03.062Z,3.33
2018-06-21T04:39:30.032Z,3.33
2018-06-21T04:41:57.255Z,4.13
2018-06-21T04:44:24.264Z,4.40
2018-06-21T04:46:51.156Z,4.43
2018-06-21T04:49:18.099Z,4.53
2018-06-21T04:51:45.027Z,4.73
2018-06-21T04:54:12.163Z,3.03
2018-06-21T04:56:39.771Z,4.13
2018-06-21T04:59:06.687Z,4.00
2018-06-21T05:01:33.627Z,4.63
2018-06-21T05:04:00.552Z,6.07
2018-06-21T05:06:27.779Z,6.70
2018-06-21T05:08:54.738Z,3.90
2018-06-21T05:11:22.263Z,5.63
2018-06-21T05:13:49.259Z,4.87
2018-06-21T05:16:16.251Z,11.93
2018-06-21T05:18:43.188Z,5.50
2018-06-21T05:21:10.103Z,6.07
2018-06-21T05:23:37.790Z,3.30
2018-06-21T05:26:04.910Z,5.57
2018-06-21T05:28:31.897Z,7.07
2018-06-21T05:30:58.860Z,3.97
2018-06-21T05:33:25.769Z,6.40
2018-06-21T05:35:52.731Z,7.30
2018-06-21T05:38:19.655Z,5.80
2018-06-21T05:40:46.643Z,4.77
2018-06-21T05:43:13.593Z,5.97
2018-06-21T05:45:40.527Z,5.17
2018-06-21T05:48:07.479Z,5.80
2018-06-21T05:50:34.739Z,8.07
2018-06-21T05:53:01.840Z,4.50
2018-06-21T05:55:29.939Z,4.93
2018-06-21T05:57:56.886Z,4.00
2018-06-21T06:00:23.823Z,7.73
2018-06-21T06:02:50.972Z,5.43
2018-06-21T06:05:18.115Z,4.40
2018-06-21T06:07:45.028Z,6.70
2018-06-21T06:10:12.020Z,7.90
2018-06-21T06:12:38.931Z,5.00
2018-06-21T06:15:05.891Z,5.17
2018-06-21T06:17:32.891Z,4.00
2018-06-21T06:20:00.755Z,5.83
2018-06-21T06:22:27.723Z,6.63
2018-06-21T06:24:54.656Z,6.63
2018-06-21T06:27:21.587Z,6.33
2018-06-21T06:29:48.523Z,6.23
2018-06-21T06:32:15.623Z,4.27
2018-06-21T06:34:42.633Z,7.57
2018-06-21T06:37:09.714Z,3.73
2018-06-21T06:39:36.650Z,3.70
2018-06-21T06:42:03.575Z,5.83
2018-06-21T06:44:30.567Z,6.80
2018-06-21T06:46:57.507Z,6.07
2018-06-21T06:49:24.459Z,8.50
2018-06-21T06:51:51.431Z,4.70
2018-06-21T06:54:18.387Z,12.33
2018-06-21T06:56:45.315Z,6.60
2018-06-21T06:59:12.244Z,4.63
2018-06-21T07:01:39.183Z,4.73
2018-06-21T07:04:06.183Z,7.03
2018-06-21T07:06:33.236Z,5.30
2018-06-21T07:09:00.175Z,8.10
2018-06-21T07:11:27.976Z,3.30
2018-06-21T07:13:55.655Z,5.60
2018-06-21T07:16:22.994Z,8.73
2018-06-21T07:18:49.976Z,4.67
2018-06-21T07:21:16.904Z,6.97
2018-06-21T07:23:43.879Z,2.20
2018-06-21T07:26:10.824Z,6.97
2018-06-21T07:28:37.787Z,14.37
2018-06-21T07:31:04.935Z,5.80
2018-06-21T07:33:31.928Z,8.00
2018-06-21T07:35:58.861Z,5.37
2018-06-21T07:38:25.801Z,2.80
2018-06-21T07:40:52.720Z,11.77
2018-06-21T07:43:19.635Z,3.70
2018-06-21T07:45:46.539Z,6.93
2018-06-21T07:48:13.487Z,3.57
2018-06-21T07:50:40.459Z,6.90
2018-06-21T07:53:07.387Z,4.00
2018-06-21T07:55:34.303Z,7.57
2018-06-21T07:58:01.267Z,5.97
2018-06-21T08:00:28.211Z,5.57
2018-06-21T08:02:55.148Z,6.00
2018-06-21T08:05:22.143Z,6.17
2018-06-21T08:07:49.126Z,3.27
2018-06-21T08:10:16.334Z,4.30
2018-06-21T08:12:43.571Z,3.67
2018-06-21T08:15:10.494Z,4.17
2018-06-21T08:17:37.892Z,4.97
2018-06-21T08:20:04.898Z,8.40
2018-06-21T08:22:31.929Z,6.63
2018-06-21T08:24:58.843Z,4.27
2018-06-21T08:27:25.779Z,3.97
2018-06-21T08:29:52.878Z,5.50
2018-06-21T08:32:19.855Z,5.97
2018-06-21T08:34:47.122Z,6.87
2018-06-21T08:37:14.060Z,7.30
2018-06-21T08:39:41.003Z,6.67
2018-06-21T08:42:07.959Z,5.13
2018-06-21T08:44:34.927Z,3.27
2018-06-21T08:47:02.559Z,6.93
2018-06-21T08:49:29.491Z,7.73
2018-06-21T08:51:56.455Z,6.47
2018-06-21T08:54:23.395Z,5.73
2018-06-21T08:56:50.315Z,5.00
2018-06-21T08:59:17.256Z,8.50
2018-06-21T09:01:44.179Z,4.30
2018-06-21T09:04:11.187Z,7.07
2018-06-21T09:06:38.127Z,7.80
2018-06-21T09:09:07.119Z,5.53
2018-06-21T09:11:34.195Z,4.10
2018-06-21T09:14:01.179Z,3.10
2018-06-21T09:16:28.115Z,4.80
2018-06-21T09:18:55.087Z,2.70
2018-06-21T09:21:22.071Z,4.80
2018-06-21T09:23:49.066Z,4.10
2018-06-21T09:26:15.975Z,2.00
2018-06-21T09:28:43.049Z,2.53
2018-06-21T09:31:09.975Z,4.37
2018-06-21T09:33:37.159Z,3.60
2018-06-21T09:36:04.271Z,5.37
2018-06-21T09:38:36.832Z,6.13
2018-06-21T09:41:09.619Z,3.73
2018-06-21T09:43:50.300Z,4.60
2018-06-21T09:46:14.985Z,4.27
2018-06-21T09:48:49.355Z,2.97
2018-06-21T09:51:17.071Z,5.90
2018-06-21T09:53:44.023Z,4.60
2018-06-21T09:56:10.951Z,2.93
2018-06-21T09:58:37.995Z,3.63
2018-06-21T10:01:04.943Z,7.20
2018-06-21T10:03:32.656Z,5.40
2018-06-21T10:05:59.640Z,3.97
2018-06-21T10:08:26.767Z,4.00
2018-06-21T10:10:53.712Z,2.60
2018-06-21T10:13:20.643Z,5.53
2018-06-21T10:15:47.645Z,2.90
2018-06-21T10:18:14.655Z,5.87
2018-06-21T10:20:41.891Z,2.33
2018-06-21T10:23:08.855Z,4.33
2018-06-21T10:25:35.966Z,4.17
2018-06-21T10:28:03.166Z,5.63
2018-06-21T10:30:30.163Z,5.00
2018-06-21T10:32:57.087Z,3.90
2018-06-21T10:35:24.015Z,3.43
2018-06-21T10:37:51.063Z,2.03
2018-06-21T10:40:18.011Z,5.70
2018-06-21T10:42:45.004Z,2.97
2018-06-21T10:45:12.075Z,5.27
2018-06-21T10:47:38.999Z,4.37
2018-06-21T10:50:06.059Z,9.45
2018-06-21T10:52:33.228Z,4.22
2018-06-21T10:55:00.267Z,1.42
2018-06-21T10:57:27.191Z,4.83
2018-06-21T10:59:54.226Z,4.23
2018-06-21T11:02:21.215Z,2.20
2018-06-21T11:04:48.151Z,2.35
2018-06-21T11:07:15.065Z,2.77
2018-06-21T11:09:42.031Z,2.30
2018-06-21T11:12:08.951Z,5.45
2018-06-21T11:14:35.895Z,3.62
2018-06-21T11:17:03.032Z,3.57
2018-06-21T11:19:29.947Z,2.22
2018-06-21T11:21:57.239Z,1.07
2018-06-21T11:24:24.198Z,1.43
2018-06-21T11:26:51.247Z,5.07
2018-06-21T11:29:18.171Z,3.83
2018-06-21T11:31:45.148Z,5.47
2018-06-21T11:34:12.211Z,4.30
2018-06-21T11:36:39.247Z,7.80
2018-06-21T11:39:07.403Z,2.58
2018-06-21T11:41:34.443Z,5.53
2018-06-21T11:44:01.359Z,4.30
2018-06-21T11:46:28.319Z,5.65
2018-06-21T11:48:55.251Z,2.03
2018-06-21T11:51:22.331Z,4.10
2018-06-21T11:53:49.271Z,5.10
2018-06-21T11:56:16.196Z,4.20
2018-06-21T11:58:43.123Z,5.83
2018-06-21T12:01:10.536Z,3.52
2018-06-21T12:03:37.471Z,7.80
2018-06-21T12:06:04.518Z,5.23
2018-06-21T12:08:31.436Z,8.70
2018-06-21T12:10:58.422Z,5.57
2018-06-21T12:13:25.339Z,5.57
2018-06-21T12:15:52.572Z,4.77
2018-06-21T12:18:19.515Z,2.60
2018-06-21T12:20:46.464Z,1.63
2018-06-21T12:23:13.378Z,5.73
2018-06-21T12:25:40.503Z,4.43
2018-06-21T12:28:07.411Z,3.90
2018-06-21T12:30:34.420Z,6.43
2018-06-21T12:33:01.422Z,2.67
2018-06-21T12:35:28.431Z,3.70
2018-06-21T12:37:55.384Z,4.07
2018-06-21T12:40:22.578Z,13.73
2018-06-21T12:42:49.507Z,2.40
2018-06-21T12:45:16.407Z,4.77
2018-06-21T12:47:43.395Z,7.67
2018-06-21T12:50:10.327Z,3.50
2018-06-21T12:52:37.249Z,4.03
2018-06-21T12:55:04.239Z,5.37
2018-06-21T12:57:31.176Z,4.53
2018-06-21T12:59:58.127Z,4.20
2018-06-21T13:02:25.074Z,2.70
2018-06-21T13:04:52.091Z,19.60
2018-06-21T13:07:19.019Z,5.30
2018-06-21T13:09:57.463Z,3.37
2018-06-21T13:12:36.999Z,6.90
2018-06-21T13:15:04.551Z,5.03
2018-06-21T13:17:31.844Z,4.43
2018-06-21T13:19:59.931Z,7.80
2018-06-21T13:22:27.253Z,3.63
2018-06-21T13:24:54.174Z,2.40
2018-06-21T13:27:21.392Z,5.07
2018-06-21T13:29:48.437Z,2.27
2018-06-21T13:32:15.479Z,3.40
2018-06-21T13:34:42.394Z,1.40
2018-06-21T13:37:09.385Z,3.23
2018-06-21T13:39:36.319Z,1.50
2018-06-21T13:42:03.757Z,6.28
2018-06-21T13:44:30.899Z,2.53
2018-06-21T13:46:57.896Z,2.63
2018-06-21T13:49:24.927Z,1.13
2018-06-21T13:51:51.943Z,6.50
2018-06-21T13:54:18.866Z,2.57
2018-06-21T13:56:46.971Z,1.47
2018-06-21T13:59:14.271Z,6.20
2018-06-21T14:01:41.176Z,2.70
2018-06-21T14:04:08.615Z,2.33
2018-06-21T14:06:35.801Z,3.07
2018-06-21T14:09:04.146Z,0.70
2018-06-21T14:11:31.111Z,3.13
2018-06-21T14:13:58.035Z,5.60
2018-06-21T14:16:25.604Z,1.60
2018-06-21T14:18:52.863Z,2.50
2018-06-21T14:21:20.722Z,2.00
2018-06-21T14:23:47.752Z,2.27
2018-06-21T14:26:14.769Z,3.10
2018-06-21T14:28:41.744Z,2.07
2018-06-21T14:31:08.678Z,3.10
2018-06-21T14:33:35.603Z,2.10
2018-06-21T14:36:02.520Z,3.53
2018-06-21T14:38:29.479Z,1.07
2018-06-21T14:40:56.423Z,3.00
2018-06-21T14:43:23.379Z,2.77
2018-06-21T14:45:50.375Z,3.60
2018-06-21T14:48:17.331Z,1.80
2018-06-21T14:50:44.302Z,1.63
2018-06-21T14:53:11.316Z,1.10
2018-06-21T14:55:38.215Z,8.07
2018-06-21T14:58:05.155Z,3.67
2018-06-21T15:00:32.078Z,2.47
2018-06-21T15:02:59.032Z,2.63
2018-06-21T15:05:26.068Z,6.70
2018-06-21T15:07:53.024Z,2.03
2018-06-21T15:10:19.951Z,2.60
2018-06-21T15:12:46.888Z,2.20
2018-06-21T15:15:13.831Z,3.07
2018-06-21T15:17:40.769Z,2.93
2018-06-21T15:20:07.739Z,2.07
2018-06-21T15:22:34.678Z,1.70
2018-06-21T15:25:01.814Z,3.50
2018-06-21T15:27:28.796Z,1.50
2018-06-21T15:29:55.743Z,3.10
2018-06-21T15:32:22.680Z,2.53
2018-06-21T15:34:49.603Z,2.13
2018-06-21T15:37:16.537Z,2.20
2018-06-21T15:39:43.467Z,3.65
2018-06-21T15:42:10.527Z,3.60
2018-06-21T15:44:37.459Z,3.47
2018-06-21T15:47:04.411Z,1.90
2018-06-21T15:49:31.331Z,2.30
2018-06-21T15:51:58.295Z,7.30
2018-06-21T15:54:25.198Z,4.50
2018-06-21T15:56:52.224Z,6.53
2018-06-21T15:59:19.168Z,4.00
2018-06-21T16:01:46.079Z,2.40
2018-06-21T16:04:13.067Z,1.97
2018-06-21T16:06:39.986Z,3.92
2018-06-21T16:09:08.071Z,3.10
2018-06-21T16:11:34.983Z,3.70
2018-06-21T16:14:02.075Z,2.67
2018-06-21T16:16:29.126Z,3.37
2018-06-21T16:18:56.048Z,3.02
2018-06-21T16:21:22.967Z,3.57
2018-06-21T16:23:49.892Z,2.30
2018-06-21T16:26:16.931Z,2.80
2018-06-21T16:28:43.979Z,5.00
2018-06-21T16:31:10.906Z,3.90
2018-06-21T16:33:37.888Z,8.88
2018-06-21T16:36:05.175Z,4.42
2018-06-21T16:38:32.236Z,0.93
2018-06-21T16:40:59.353Z,5.08
2018-06-21T16:43:26.287Z,4.55
2018-06-21T16:45:53.291Z,1.77
2018-06-21T16:48:20.327Z,4.80
2018-06-21T16:50:48.147Z,2.02
2018-06-21T16:53:15.129Z,2.40
2018-06-21T16:55:42.381Z,3.15
2018-06-21T16:58:09.415Z,3.90
2018-06-21T17:00:36.360Z,5.45
2018-06-21T17:03:03.363Z,4.83
2018-06-21T17:05:30.286Z,2.43
2018-06-21T17:07:57.223Z,1.95
2018-06-21T17:10:24.190Z,4.30
2018-06-21T17:12:51.131Z,2.10
2018-06-21T17:15:18.056Z,4.10
2018-06-21T17:17:45.024Z,2.10
2018-06-21T17:20:12.012Z,8.27
2018-06-21T17:22:38.927Z,3.43
2018-06-21T17:25:06.057Z,3.70
2018-06-21T17:27:33.043Z,8.13
2018-06-21T17:30:00.483Z,4.60
2018-06-21T17:32:27.408Z,9.20
2018-06-21T17:34:54.337Z,7.08
2018-06-21T17:37:21.318Z,4.97
2018-06-21T17:39:48.370Z,4.37
2018-06-21T17:42:15.278Z,9.33
2018-06-21T17:44:42.248Z,4.70
2018-06-21T17:47:09.299Z,6.80
2018-06-21T17:49:36.245Z,3.63
2018-06-21T17:52:03.207Z,5.20
2018-06-21T17:54:30.138Z,3.77
2018-06-21T17:56:57.076Z,2.80
2018-06-21T17:59:24.003Z,6.03
2018-06-21T18:01:50.927Z,4.30
2018-06-21T18:04:17.895Z,2.30
2018-06-21T18:06:44.819Z,4.23
2018-06-21T18:09:11.743Z,4.23
2018-06-21T18:11:38.635Z,4.23
2018-06-21T18:14:05.616Z,2.50
2018-06-21T18:16:32.551Z,4.10
2018-06-21T18:18:59.479Z,3.50
2018-06-21T18:21:26.375Z,5.70
2018-06-21T18:23:53.303Z,2.23
2018-06-21T18:26:20.267Z,4.13
2018-06-21T18:28:47.265Z,5.37
2018-06-21T18:31:14.274Z,6.77
2018-06-21T18:33:41.207Z,4.53
2018-06-21T18:36:08.135Z,4.03
2018-06-21T18:38:35.044Z,4.27
2018-06-21T18:41:01.983Z,6.00
2018-06-21T18:43:28.903Z,3.57
2018-06-21T18:45:55.853Z,4.93
2018-06-21T18:48:23.195Z,4.22
2018-06-21T18:50:50.171Z,3.63
2018-06-21T18:53:17.201Z,4.13
2018-06-21T18:55:44.526Z,2.37
2018-06-21T18:58:11.443Z,6.15
2018-06-21T19:00:38.380Z,6.90
2018-06-21T19:03:05.424Z,5.10
2018-06-21T19:05:32.375Z,4.23
2018-06-21T19:08:04.954Z,5.92
2018-06-21T19:10:37.783Z,4.55
2018-06-21T19:13:04.631Z,6.72
2018-06-21T19:15:31.600Z,4.60
2018-06-21T19:17:58.532Z,2.45
2018-06-21T19:20:25.454Z,4.42
2018-06-21T19:22:52.371Z,9.90
2018-06-21T19:25:19.306Z,7.08
2018-06-21T19:27:46.583Z,5.80
2018-06-21T19:30:13.515Z,5.40
2018-06-21T19:32:40.439Z,6.37
2018-06-21T19:35:07.383Z,6.80
2018-06-21T19:37:34.291Z,6.22
2018-06-21T19:40:01.227Z,5.83
2018-06-21T19:42:28.158Z,7.35
2018-06-21T19:44:55.091Z,4.42
2018-06-21T19:47:22.011Z,7.42
2018-06-21T19:49:48.919Z,2.40
2018-06-21T19:52:15.851Z,14.53
2018-06-21T19:54:42.779Z,10.50
2018-06-21T19:57:09.689Z,7.62
2018-06-21T19:59:36.607Z,9.20
2018-06-21T20:02:03.581Z,5.40
2018-06-21T20:04:30.739Z,7.95
2018-06-21T20:06:57.663Z,7.12
2018-06-21T20:09:24.639Z,8.95
2018-06-21T20:11:51.563Z,5.47
2018-06-21T20:14:18.536Z,8.40
2018-06-21T20:16:45.464Z,4.25
2018-06-21T20:19:17.062Z,6.72
2018-06-21T20:21:44.238Z,10.50
2018-06-21T20:24:11.194Z,3.47
2018-06-21T20:26:38.131Z,11.15
2018-06-21T20:29:09.755Z,8.20
2018-06-21T20:31:36.656Z,5.65
2018-06-21T20:34:03.628Z,8.53
2018-06-21T20:36:30.567Z,10.65
2018-06-21T20:38:57.491Z,7.53
2018-06-21T20:41:24.415Z,7.30
2018-06-21T20:43:51.738Z,8.90
2018-06-21T20:46:18.745Z,12.43
2018-06-21T20:48:45.823Z,6.67
2018-06-21T20:51:13.091Z,4.62
2018-06-21T20:53:40.019Z,7.83
2018-06-21T20:56:06.940Z,7.83
2018-06-21T20:58:33.882Z,7.67
2018-06-21T21:01:00.867Z,7.87
2018-06-21T21:03:27.786Z,11.95
2018-06-21T21:05:54.718Z,7.62
2018-06-21T21:08:21.615Z,7.70
2018-06-21T21:10:48.567Z,6.58
2018-06-21T21:13:15.499Z,5.10
2018-06-21T21:15:42.415Z,10.15
2018-06-21T21:18:09.335Z,5.08
2018-06-21T21:20:36.266Z,7.58
2018-06-21T21:23:03.233Z,6.42
2018-06-21T21:25:30.127Z,11.78
2018-06-21T21:27:57.076Z,4.87
2018-06-21T21:30:23.983Z,9.90
2018-06-21T21:32:50.952Z,7.30
2018-06-21T21:35:17.858Z,6.90
2018-06-21T21:37:44.775Z,7.65
2018-06-21T21:40:11.688Z,5.72
2018-06-21T21:42:38.827Z,5.85
2018-06-21T21:45:05.907Z,3.67
2018-06-21T21:47:32.831Z,6.85
2018-06-21T21:49:59.751Z,7.42
2018-06-21T21:52:26.703Z,10.88
2018-06-21T21:54:53.638Z,9.73
2018-06-21T21:57:20.654Z,5.60
2018-06-21T21:59:48.382Z,5.22
2018-06-21T22:02:15.675Z,6.37
2018-06-21T22:04:42.771Z,5.28
2018-06-21T22:07:09.700Z,7.65
2018-06-21T22:09:36.612Z,5.42
2018-06-21T22:12:03.556Z,11.05
2018-06-21T22:14:30.471Z,5.85
2018-06-21T22:16:57.399Z,12.10
2018-06-21T22:19:24.290Z,8.30
2018-06-21T22:21:51.203Z,5.95
2018-06-21T22:24:18.108Z,5.85
2018-06-21T22:26:45.044Z,13.10
2018-06-21T22:29:12.055Z,11.73
2018-06-21T22:31:38.975Z,7.03
2018-06-21T22:34:05.923Z,6.17
2018-06-21T22:36:32.853Z,4.92
2018-06-21T22:38:59.751Z,8.40
2018-06-21T22:41:26.687Z,5.75
2018-06-21T22:43:53.579Z,9.23
2018-06-21T22:46:20.538Z,7.35
2018-06-21T22:48:47.484Z,6.30
2018-06-21T22:51:14.396Z,8.75
2018-06-21T22:53:41.467Z,7.72
2018-06-21T22:56:08.407Z,5.00
2018-06-21T22:58:35.331Z,7.05
2018-06-21T23:01:02.323Z,5.60
2018-06-21T23:03:29.316Z,9.73
2018-06-21T23:05:56.401Z,14.23
2018-06-21T23:08:23.334Z,5.33
2018-06-21T23:10:50.283Z,10.58
2018-06-21T23:13:17.477Z,6.50
2018-06-21T23:15:45.141Z,7.83
2018-06-21T23:18:19.772Z,6.10
2018-06-21T23:20:46.815Z,6.15
2018-06-21T23:23:13.755Z,9.08
2018-06-21T23:25:40.687Z,12.33
2018-06-21T23:28:07.747Z,3.92
2018-06-21T23:30:34.785Z,5.62
2018-06-21T23:33:01.733Z,3.52
2018-06-21T23:35:28.647Z,3.67
2018-06-21T23:37:55.595Z,5.08
2018-06-21T23:40:22.507Z,5.80
2018-06-21T23:42:49.655Z,4.95
2018-06-21T23:45:16.555Z,5.08
2018-06-21T23:47:43.602Z,4.20
2018-06-21T23:50:10.567Z,6.47
2018-06-21T23:52:37.631Z,2.20
2018-06-21T23:55:04.783Z,5.00
2018-06-21T23:57:32.398Z,4.17
2018-06-21T23:59:59.356Z,6.22
